Kezdőlap
METAR-TAF:

METAR-TAF

Repülőterek :

Tanger, Marokkó

földrajzi szélesség: 35-44N, földrajzi hosszúság: 005-54W, magasság: 19 m

Jelenlegi meteorológiai megfigyelések

A jelentés 32 perccel ezelõtt készült, 23:00 UTC
Délnyugati szél 3 kt, dél-délnyugati és nyugati között változik
Hőmérséklet 20°C
Páratartalom 100%
Légköri nyomás 1014 hPa
Látótávolság 10 km, vagy több
Szórványos felhőzet 1300 lábon

METAR: GMTT 172300Z 23003KT 200V260 9999 SCT013 20/20 Q1014 NOSIG

Idő: 00:32 (23:32 UTC)

Előrejelzés

A jelentés 6 órával és 32 perccel ezelõtt készült, 17:00 UTC
Az előrejelzés 17-én 18 óra UTC és 18-én 24 óra UTC között érvényes
Nyugati szél 9 kt
Látótávolság 10 km, vagy több
felhőtlen 1500 m magasságban, és nincs gomolyfelhõ

TAF: GMTT 171700Z 1718/1824 26009KT CAVOK

Meteorológiai megfigyelések és előrejelzések több, mint 4000 repülőtéren (METAR és TAF jelentéseket).

A térképen piros és sárga pontok jelzik az elérhető meteorológiai állomásokat.

Mozgassa az egeret a pont fölött, hogy megjelenjen az állomás neve.

Azután kattintson az időjárási megfigyelések és előrejelzések megtekintéséhez.

A térkép megváltoztatása: kattintson a fekete keresztel jelölt zöld gombra ráközelítéshez, a vonallal jelölt zöld gombra távolításhoz, vagy a zöld nyilakra a szomszédos térképek eléréséhez.


METAR-TAF: